Chinook, Washington
Current Conditions -  °F | °C
As of 5:02 AM on Saturday 20 Dec 2014 (Local Time) from KAST Reporting Station
Moderate Rain Moderate Rain  
Wind Chill: 44°   Ceiling: 2500
Heat Index: 48°   Visibility: 2.5mi
Dew Point: 45°   Wind: 9mph
Humidity: 89%   Direction: 120°ESE
Pressure: 29.61"   Gusts: NA
Location:  46.28°N, 123.94°W
Report Text: KAST 201302Z AUTO 12008KT 2 1/2SM RA BR FEW020 OVC025 09/07 A2961 RMK AO2 P0001 T00890072
Loading
Personal Weather Stations






























Interactive Weather Map New forecast layout! Learn more

10-Day Weather Forecast

Advertisements
Track Severe Weather on mobile